createdAt,value
2019-02-07T00:01:04.729Z,21.70
2019-02-07T00:03:37.896Z,21.60
2019-02-07T00:06:13.064Z,21.50
2019-02-07T00:08:46.223Z,21.40
2019-02-07T00:11:19.281Z,21.20
2019-02-07T00:13:52.524Z,21.20
2019-02-07T00:16:26.232Z,21.10
2019-02-07T00:18:59.271Z,21.10
2019-02-07T00:21:32.465Z,21.00
2019-02-07T00:24:05.823Z,21.10
2019-02-07T00:26:39.442Z,21.10
2019-02-07T00:29:12.812Z,21.10
2019-02-07T00:31:45.902Z,21.00
2019-02-07T00:34:19.310Z,20.90
2019-02-07T00:36:52.874Z,20.80
2019-02-07T00:39:26.088Z,20.80
2019-02-07T00:41:59.330Z,20.80
2019-02-07T00:44:32.373Z,20.80
2019-02-07T00:47:05.720Z,20.70
2019-02-07T00:49:40.784Z,20.80
2019-02-07T00:52:13.865Z,20.80
2019-02-07T00:54:47.179Z,20.80
2019-02-07T00:57:20.348Z,20.80
2019-02-07T00:59:53.730Z,20.80
2019-02-07T01:02:26.745Z,20.80
2019-02-07T01:05:00.132Z,20.70
2019-02-07T01:07:34.588Z,20.60
2019-02-07T01:10:08.588Z,20.60
2019-02-07T01:12:44.548Z,20.50
2019-02-07T01:15:18.061Z,20.50
2019-02-07T01:17:51.591Z,20.40
2019-02-07T01:20:24.754Z,20.40
2019-02-07T01:23:00.162Z,20.40
2019-02-07T01:25:34.469Z,20.30
2019-02-07T01:28:07.854Z,20.30
2019-02-07T01:30:41.180Z,20.30
2019-02-07T01:33:14.281Z,20.20
2019-02-07T01:35:47.447Z,20.20
2019-02-07T01:38:20.667Z,20.20
2019-02-07T01:40:53.871Z,20.10
2019-02-07T01:43:26.981Z,20.10
2019-02-07T01:46:01.746Z,20.10
2019-02-07T01:48:35.099Z,20.10
2019-02-07T01:51:08.301Z,20.00
2019-02-07T01:53:41.725Z,20.10
2019-02-07T01:56:14.935Z,20.00
2019-02-07T01:58:48.026Z,19.90
2019-02-07T02:01:22.443Z,19.90
2019-02-07T02:03:55.548Z,20.00
2019-02-07T02:06:29.062Z,19.90
2019-02-07T02:09:02.456Z,19.90
2019-02-07T02:11:35.722Z,19.90
2019-02-07T02:14:10.979Z,19.90
2019-02-07T02:16:45.107Z,19.80
2019-02-07T02:19:18.513Z,19.70
2019-02-07T02:21:51.831Z,19.60
2019-02-07T02:24:24.903Z,19.60
2019-02-07T02:26:58.323Z,19.50
2019-02-07T02:29:31.480Z,19.50
2019-02-07T02:32:04.771Z,19.40
2019-02-07T02:34:39.380Z,19.30
2019-02-07T02:37:12.588Z,19.30
2019-02-07T02:39:45.850Z,19.30
2019-02-07T02:42:19.810Z,19.10
2019-02-07T02:44:52.970Z,19.10
2019-02-07T02:47:26.219Z,19.10
2019-02-07T02:49:59.402Z,19.00
2019-02-07T02:52:32.591Z,18.90
2019-02-07T02:55:06.097Z,18.90
2019-02-07T02:57:39.190Z,18.90
2019-02-07T03:00:20.270Z,18.90
2019-02-07T03:03:10.184Z,18.90
2019-02-07T03:06:07.849Z,18.90
2019-02-07T03:08:48.822Z,18.80
2019-02-07T03:11:42.705Z,18.80
2019-02-07T03:14:32.832Z,18.70
2019-02-07T03:17:24.535Z,18.70
2019-02-07T03:20:06.247Z,18.60
2019-02-07T03:22:56.418Z,18.50
2019-02-07T03:25:52.672Z,18.50
2019-02-07T03:28:39.630Z,18.50
2019-02-07T03:31:34.975Z,18.40
2019-02-07T03:34:27.714Z,18.40
2019-02-07T03:37:18.848Z,18.30
2019-02-07T03:40:16.095Z,18.30
2019-02-07T03:43:23.992Z,18.20
2019-02-07T03:46:21.655Z,18.20
2019-02-07T03:49:13.302Z,18.30
2019-02-07T03:52:13.723Z,18.20
2019-02-07T03:55:04.925Z,18.20
2019-02-07T03:58:02.608Z,18.10
2019-02-07T04:00:54.098Z,18.10
2019-02-07T04:03:51.593Z,18.10
2019-02-07T04:06:58.375Z,18.00
2019-02-07T04:09:49.062Z,18.00
2019-02-07T04:12:38.821Z,17.90
2019-02-07T04:15:30.329Z,18.00
2019-02-07T04:18:33.768Z,17.90
2019-02-07T04:21:34.515Z,17.90
2019-02-07T04:24:25.113Z,17.90
2019-02-07T04:27:09.995Z,17.90
2019-02-07T04:30:00.391Z,17.90
2019-02-07T04:33:01.827Z,17.80
2019-02-07T04:35:56.210Z,17.90
2019-02-07T04:38:51.537Z,17.90
2019-02-07T04:41:42.942Z,17.90
2019-02-07T04:44:32.738Z,18.00
2019-02-07T04:47:24.022Z,18.00
2019-02-07T04:50:10.803Z,18.00
2019-02-07T04:53:04.719Z,18.00
2019-02-07T04:55:54.515Z,18.10
2019-02-07T04:58:45.879Z,18.00
2019-02-07T05:01:37.757Z,17.90
2019-02-07T05:04:30.119Z,17.90
2019-02-07T05:07:20.193Z,17.90
2019-02-07T05:10:27.201Z,17.90
2019-02-07T05:13:17.075Z,17.80
2019-02-07T05:16:09.416Z,17.70
2019-02-07T05:19:00.822Z,17.70
2019-02-07T05:21:59.614Z,17.60
2019-02-07T05:24:52.478Z,17.60
2019-02-07T05:27:57.426Z,17.50
2019-02-07T05:30:42.705Z,17.40
2019-02-07T05:33:34.126Z,17.40
2019-02-07T05:36:36.081Z,17.30
2019-02-07T05:39:28.411Z,17.20
2019-02-07T05:42:18.311Z,17.10
2019-02-07T05:45:18.146Z,17.10
2019-02-07T05:48:07.894Z,17.10
2019-02-07T05:51:02.171Z,17.10
2019-02-07T05:53:57.912Z,17.00
2019-02-07T05:56:58.078Z,17.00
2019-02-07T05:59:48.132Z,17.00
2019-02-07T06:02:28.489Z,16.90
2019-02-07T06:05:25.958Z,16.90
2019-02-07T06:08:15.836Z,16.80
2019-02-07T06:11:09.477Z,16.80
2019-02-07T06:14:06.645Z,16.70
2019-02-07T06:17:02.812Z,16.60
2019-02-07T06:19:43.546Z,16.60
2019-02-07T06:22:41.226Z,16.50
2019-02-07T06:25:32.646Z,16.50
2019-02-07T06:28:22.413Z,16.50
2019-02-07T06:31:12.693Z,16.50
2019-02-07T06:34:04.049Z,16.50
2019-02-07T06:37:01.390Z,16.50
2019-02-07T06:39:59.060Z,16.40
2019-02-07T06:42:49.764Z,16.40
2019-02-07T06:45:33.745Z,16.40
2019-02-07T06:48:31.148Z,16.40
2019-02-07T06:51:34.970Z,16.30
2019-02-07T06:54:22.998Z,16.30
2019-02-07T06:57:13.009Z,16.30
2019-02-07T07:00:07.094Z,16.30
2019-02-07T07:03:02.394Z,16.40
2019-02-07T07:05:58.291Z,16.30
2019-02-07T07:08:48.088Z,16.30
2019-02-07T07:11:57.656Z,16.20
2019-02-07T07:14:51.933Z,16.20
2019-02-07T07:17:43.609Z,16.20
2019-02-07T07:20:33.334Z,16.20
2019-02-07T07:23:40.233Z,16.20
2019-02-07T07:26:43.743Z,16.20
2019-02-07T07:29:35.511Z,16.10
2019-02-07T07:32:45.296Z,16.10
2019-02-07T07:35:39.404Z,16.10
2019-02-07T07:38:37.780Z,16.10
2019-02-07T07:41:27.563Z,16.10
2019-02-07T07:44:10.210Z,16.10
2019-02-07T07:46:53.377Z,16.10
2019-02-07T07:49:42.674Z,16.20
2019-02-07T07:52:25.763Z,16.20
2019-02-07T07:55:23.360Z,16.20
2019-02-07T07:58:28.607Z,16.20
2019-02-07T08:01:18.697Z,16.20
2019-02-07T08:04:06.326Z,16.20
2019-02-07T08:07:06.834Z,16.20
2019-02-07T08:10:13.317Z,16.20
2019-02-07T08:13:11.909Z,16.20
2019-02-07T08:16:12.544Z,16.30
2019-02-07T08:19:13.225Z,16.30
2019-02-07T08:22:13.510Z,16.30
2019-02-07T08:25:05.541Z,16.20
2019-02-07T08:28:02.812Z,16.30
2019-02-07T08:30:57.377Z,16.40
2019-02-07T08:33:52.003Z,16.50
2019-02-07T08:36:53.137Z,16.50
2019-02-07T08:39:44.571Z,16.40
2019-02-07T08:42:36.090Z,16.40
2019-02-07T08:45:32.836Z,16.40
2019-02-07T08:48:32.422Z,16.50
2019-02-07T08:51:39.813Z,16.50
2019-02-07T08:54:33.914Z,16.50
2019-02-07T08:57:28.592Z,16.50
2019-02-07T09:00:12.654Z,16.40
2019-02-07T09:03:02.860Z,16.40
2019-02-07T09:05:54.240Z,16.40
2019-02-07T09:08:46.358Z,16.40
2019-02-07T09:11:36.914Z,16.30
2019-02-07T09:14:46.665Z,16.30
2019-02-07T09:17:41.259Z,16.40
2019-02-07T09:20:28.760Z,16.50
2019-02-07T09:23:11.882Z,16.50
2019-02-07T09:26:02.311Z,16.50
2019-02-07T09:28:58.321Z,16.60
2019-02-07T09:31:49.662Z,16.60
2019-02-07T09:34:42.716Z,16.60
2019-02-07T09:37:33.423Z,16.50
2019-02-07T09:40:30.567Z,16.50
2019-02-07T09:43:31.091Z,16.40
2019-02-07T09:46:37.775Z,16.40
2019-02-07T09:49:29.512Z,16.30
2019-02-07T09:52:19.600Z,16.30
2019-02-07T09:55:23.515Z,16.30
2019-02-07T09:58:14.198Z,16.20
2019-02-07T10:01:03.482Z,16.30
2019-02-07T10:03:49.146Z,16.30
2019-02-07T10:06:46.518Z,16.20
2019-02-07T10:09:33.135Z,16.20
2019-02-07T10:12:31.424Z,16.10
2019-02-07T10:15:23.154Z,16.10
2019-02-07T10:18:14.967Z,16.00
2019-02-07T10:21:07.301Z,16.00
2019-02-07T10:23:54.325Z,16.00
2019-02-07T10:26:36.098Z,16.00
2019-02-07T10:29:33.586Z,16.10
2019-02-07T10:32:27.758Z,16.10
2019-02-07T10:35:22.785Z,16.10
2019-02-07T10:38:29.135Z,16.10
2019-02-07T10:41:31.915Z,16.10
2019-02-07T10:44:28.993Z,16.10
2019-02-07T10:47:39.953Z,16.10
2019-02-07T10:50:51.157Z,16.10
2019-02-07T10:53:54.853Z,16.00
2019-02-07T10:56:43.447Z,15.90
2019-02-07T10:59:35.633Z,15.90
2019-02-07T11:02:44.277Z,15.90
2019-02-07T11:05:27.400Z,15.90
2019-02-07T11:08:09.178Z,15.90
2019-02-07T11:10:59.571Z,15.90
2019-02-07T11:14:09.222Z,15.80
2019-02-07T11:17:06.578Z,15.70
2019-02-07T11:20:00.965Z,15.70
2019-02-07T11:22:55.487Z,15.60
2019-02-07T11:25:45.141Z,15.60
2019-02-07T11:28:47.427Z,15.60
2019-02-07T11:31:51.956Z,15.50
2019-02-07T11:34:45.880Z,15.60
2019-02-07T11:37:35.209Z,15.60
2019-02-07T11:40:27.143Z,15.60
2019-02-07T11:43:21.161Z,15.60
2019-02-07T11:46:39.981Z,15.60
2019-02-07T11:49:22.202Z,15.60
2019-02-07T11:52:14.066Z,15.50
2019-02-07T11:55:11.680Z,15.50
2019-02-07T11:58:10.667Z,15.50
2019-02-07T12:01:13.455Z,15.50
2019-02-07T12:04:02.660Z,15.50
2019-02-07T12:06:55.152Z,15.50
2019-02-07T12:09:45.273Z,15.50
2019-02-07T12:12:44.895Z,15.50
2019-02-07T12:15:55.044Z,15.40
2019-02-07T12:18:44.905Z,15.40
2019-02-07T12:21:31.780Z,15.40
2019-02-07T12:24:21.824Z,15.40
2019-02-07T12:27:17.149Z,15.40
2019-02-07T12:30:22.989Z,15.50
2019-02-07T12:33:26.881Z,15.50
2019-02-07T12:36:07.775Z,15.50
2019-02-07T12:39:01.994Z,15.60
2019-02-07T12:41:56.350Z,15.60
2019-02-07T12:44:46.649Z,15.60
2019-02-07T12:47:50.822Z,15.60
2019-02-07T12:50:49.856Z,15.60
2019-02-07T12:53:57.769Z,15.70
2019-02-07T12:57:01.161Z,15.70
2019-02-07T12:59:52.491Z,15.70
2019-02-07T13:02:57.101Z,15.70
2019-02-07T13:05:48.640Z,15.70
2019-02-07T13:08:39.635Z,15.70
2019-02-07T13:11:33.916Z,15.70
2019-02-07T13:14:35.160Z,15.70
2019-02-07T13:17:23.988Z,15.70
2019-02-07T13:20:26.709Z,15.80
2019-02-07T13:23:16.514Z,15.80
2019-02-07T13:26:04.234Z,15.80
2019-02-07T13:28:58.434Z,15.80
2019-02-07T13:32:21.414Z,15.90
2019-02-07T13:35:11.228Z,16.00
2019-02-07T13:37:51.027Z,16.10
2019-02-07T13:40:55.830Z,16.20
2019-02-07T13:43:42.993Z,16.20
2019-02-07T13:46:26.817Z,16.30
2019-02-07T13:49:36.521Z,16.40
2019-02-07T13:52:41.886Z,16.50
2019-02-07T13:55:45.263Z,16.50
2019-02-07T13:58:47.708Z,16.60
2019-02-07T14:01:51.665Z,16.70
2019-02-07T14:04:50.456Z,16.70
2019-02-07T14:08:11.827Z,16.90
2019-02-07T14:11:06.069Z,17.00
2019-02-07T14:14:05.708Z,17.10
2019-02-07T14:16:49.973Z,17.20
2019-02-07T14:20:03.661Z,17.30
2019-02-07T14:22:52.776Z,17.40
2019-02-07T14:25:35.828Z,17.50
2019-02-07T14:28:29.102Z,17.50
2019-02-07T14:31:20.696Z,17.60
2019-02-07T14:34:14.559Z,17.70
2019-02-07T14:37:04.550Z,17.80
2019-02-07T14:40:00.479Z,17.90
2019-02-07T14:42:56.615Z,18.10
2019-02-07T14:45:56.735Z,18.20
2019-02-07T14:48:30.223Z,18.30
2019-02-07T14:51:03.042Z,18.40
2019-02-07T14:53:38.931Z,18.40
2019-02-07T14:56:15.485Z,18.60
2019-02-07T14:58:48.805Z,18.60
2019-02-07T15:01:23.394Z,18.70
2019-02-07T15:03:56.441Z,18.80
2019-02-07T15:06:29.507Z,18.80
2019-02-07T15:09:02.819Z,18.90
2019-02-07T15:11:37.138Z,19.00
2019-02-07T15:14:10.330Z,19.10
2019-02-07T15:16:46.935Z,19.10
2019-02-07T15:19:20.215Z,19.10
2019-02-07T15:21:53.806Z,19.20
2019-02-07T15:24:26.908Z,19.20
2019-02-07T15:27:02.046Z,19.20
2019-02-07T15:29:35.207Z,19.30
2019-02-07T15:32:11.116Z,19.40
2019-02-07T15:34:44.469Z,19.60
2019-02-07T15:37:18.595Z,19.70
2019-02-07T15:39:51.927Z,19.60
2019-02-07T15:42:25.365Z,19.70
2019-02-07T15:44:59.040Z,19.80
2019-02-07T15:47:35.627Z,19.80
2019-02-07T15:50:15.870Z,19.80
2019-02-07T15:52:52.027Z,19.90
2019-02-07T15:55:24.625Z,20.00
2019-02-07T15:57:57.803Z,20.20
2019-02-07T16:00:47.850Z,20.20
2019-02-07T16:03:46.820Z,20.20
2019-02-07T16:06:21.757Z,20.30
2019-02-07T16:08:55.378Z,20.20
2019-02-07T16:11:28.552Z,20.30
2019-02-07T16:14:01.688Z,20.40
2019-02-07T16:16:34.880Z,20.50
2019-02-07T16:19:09.684Z,20.50
2019-02-07T16:21:46.395Z,20.60
2019-02-07T16:24:19.624Z,20.60
2019-02-07T16:27:00.153Z,20.60
2019-02-07T16:29:34.102Z,20.70
2019-02-07T16:32:09.931Z,20.70
2019-02-07T16:34:43.550Z,20.60
2019-02-07T16:37:20.324Z,20.60
2019-02-07T16:39:54.070Z,20.60
2019-02-07T16:42:27.468Z,20.60
2019-02-07T16:45:00.589Z,20.70
2019-02-07T16:47:36.018Z,20.70
2019-02-07T16:50:11.109Z,20.80
2019-02-07T16:52:44.364Z,20.90
2019-02-07T16:55:18.844Z,21.00
2019-02-07T16:57:52.189Z,21.00
2019-02-07T17:00:27.750Z,21.10
2019-02-07T17:06:56.370Z,21.20
2019-02-07T17:10:41.764Z,21.40
2019-02-07T17:13:14.297Z,21.40
2019-02-07T17:15:56.882Z,21.50
2019-02-07T17:18:31.523Z,21.60
2019-02-07T17:21:11.567Z,21.70
2019-02-07T17:23:41.383Z,21.80
2019-02-07T17:26:37.164Z,21.90
2019-02-07T17:29:10.520Z,22.10
2019-02-07T18:23:29.454Z,23.30
